sensor_id;sensor_type;location;lat;lon;timestamp;P1;durP1;ratioP1;P2;durP2;ratioP2
52033;SDS011;38045;52.988;6.536;2022-08-19T00:01:30;10.02;;;4.70;;
52033;SDS011;38045;52.988;6.536;2022-08-19T00:03:58;7.22;;;5.32;;
52033;SDS011;38045;52.988;6.536;2022-08-19T00:06:27;7.28;;;6.57;;
52033;SDS011;38045;52.988;6.536;2022-08-19T00:08:53;10.15;;;4.32;;
52033;SDS011;38045;52.988;6.536;2022-08-19T00:11:20;7.00;;;5.68;;
52033;SDS011;38045;52.988;6.536;2022-08-19T00:13:46;5.10;;;4.63;;
52033;SDS011;38045;52.988;6.536;2022-08-19T00:16:13;12.15;;;11.18;;
52033;SDS011;38045;52.988;6.536;2022-08-19T00:18:39;7.07;;;6.03;;
52033;SDS011;38045;52.988;6.536;2022-08-19T00:21:05;9.98;;;6.22;;
52033;SDS011;38045;52.988;6.536;2022-08-19T00:23:32;9.45;;;7.80;;
52033;SDS011;38045;52.988;6.536;2022-08-19T00:25:59;8.27;;;6.38;;
52033;SDS011;38045;52.988;6.536;2022-08-19T00:28:25;8.70;;;7.82;;
52033;SDS011;38045;52.988;6.536;2022-08-19T00:30:51;6.38;;;5.78;;
52033;SDS011;38045;52.988;6.536;2022-08-19T00:33:18;9.45;;;6.68;;
52033;SDS011;38045;52.988;6.536;2022-08-19T00:35:44;5.72;;;5.03;;
52033;SDS011;38045;52.988;6.536;2022-08-19T00:38:09;7.55;;;6.35;;
52033;SDS011;38045;52.988;6.536;2022-08-19T00:40:35;8.63;;;6.70;;
52033;SDS011;38045;52.988;6.536;2022-08-19T00:43:00;7.28;;;6.45;;
52033;SDS011;38045;52.988;6.536;2022-08-19T00:45:32;5.85;;;5.40;;
52033;SDS011;38045;52.988;6.536;2022-08-19T00:47:58;8.60;;;6.93;;
52033;SDS011;38045;52.988;6.536;2022-08-19T00:50:28;7.88;;;6.35;;
52033;SDS011;38045;52.988;6.536;2022-08-19T00:52:54;5.88;;;5.32;;
52033;SDS011;38045;52.988;6.536;2022-08-19T00:55:22;9.23;;;7.30;;
52033;SDS011;38045;52.988;6.536;2022-08-19T00:57:52;7.63;;;6.88;;
52033;SDS011;38045;52.988;6.536;2022-08-19T01:00:21;13.10;;;7.85;;
52033;SDS011;38045;52.988;6.536;2022-08-19T01:02:48;8.15;;;5.38;;
52033;SDS011;38045;52.988;6.536;2022-08-19T01:05:15;9.05;;;7.63;;
52033;SDS011;38045;52.988;6.536;2022-08-19T01:07:45;9.23;;;7.72;;
52033;SDS011;38045;52.988;6.536;2022-08-19T01:10:14;11.60;;;7.82;;
52033;SDS011;38045;52.988;6.536;2022-08-19T01:12:43;8.63;;;6.93;;
52033;SDS011;38045;52.988;6.536;2022-08-19T01:15:12;9.45;;;6.45;;
52033;SDS011;38045;52.988;6.536;2022-08-19T01:17:40;7.72;;;5.80;;
52033;SDS011;38045;52.988;6.536;2022-08-19T01:20:10;8.20;;;7.40;;
52033;SDS011;38045;52.988;6.536;2022-08-19T01:22:40;7.15;;;6.45;;
52033;SDS011;38045;52.988;6.536;2022-08-19T01:25:19;7.57;;;6.75;;
52033;SDS011;38045;52.988;6.536;2022-08-19T01:27:49;7.63;;;6.80;;
52033;SDS011;38045;52.988;6.536;2022-08-19T01:30:19;6.65;;;5.97;;
52033;SDS011;38045;52.988;6.536;2022-08-19T01:32:48;7.00;;;6.35;;
52033;SDS011;38045;52.988;6.536;2022-08-19T01:35:15;7.75;;;7.05;;
52033;SDS011;38045;52.988;6.536;2022-08-19T01:37:50;8.63;;;6.65;;
52033;SDS011;38045;52.988;6.536;2022-08-19T01:40:21;7.43;;;6.78;;
52033;SDS011;38045;52.988;6.536;2022-08-19T01:42:51;7.70;;;7.10;;
52033;SDS011;38045;52.988;6.536;2022-08-19T01:45:18;6.97;;;5.40;;
52033;SDS011;38045;52.988;6.536;2022-08-19T01:47:46;7.82;;;6.68;;
52033;SDS011;38045;52.988;6.536;2022-08-19T01:50:12;10.07;;;6.68;;
52033;SDS011;38045;52.988;6.536;2022-08-19T01:52:39;8.95;;;8.00;;
52033;SDS011;38045;52.988;6.536;2022-08-19T01:55:08;7.25;;;6.43;;
52033;SDS011;38045;52.988;6.536;2022-08-19T01:57:36;6.88;;;6.20;;
52033;SDS011;38045;52.988;6.536;2022-08-19T02:00:05;7.90;;;7.10;;
52033;SDS011;38045;52.988;6.536;2022-08-19T02:02:33;8.05;;;7.25;;
52033;SDS011;38045;52.988;6.536;2022-08-19T02:04:59;8.07;;;7.25;;
52033;SDS011;38045;52.988;6.536;2022-08-19T02:07:25;13.50;;;8.30;;
52033;SDS011;38045;52.988;6.536;2022-08-19T02:09:50;9.18;;;7.95;;
52033;SDS011;38045;52.988;6.536;2022-08-19T02:12:16;9.30;;;7.43;;
52033;SDS011;38045;52.988;6.536;2022-08-19T02:14:41;8.88;;;7.97;;
52033;SDS011;38045;52.988;6.536;2022-08-19T02:17:07;7.85;;;7.05;;
52033;SDS011;38045;52.988;6.536;2022-08-19T02:19:33;10.77;;;9.25;;
52033;SDS011;38045;52.988;6.536;2022-08-19T02:21:59;8.70;;;7.88;;
52033;SDS011;38045;52.988;6.536;2022-08-19T02:24:25;7.70;;;6.93;;
52033;SDS011;38045;52.988;6.536;2022-08-19T02:26:51;9.98;;;7.13;;
52033;SDS011;38045;52.988;6.536;2022-08-19T02:29:16;9.70;;;7.32;;
52033;SDS011;38045;52.988;6.536;2022-08-19T02:31:42;10.25;;;8.15;;
52033;SDS011;38045;52.988;6.536;2022-08-19T02:34:07;7.70;;;6.45;;
52033;SDS011;38045;52.988;6.536;2022-08-19T02:36:33;7.72;;;6.95;;
52033;SDS011;38045;52.988;6.536;2022-08-19T02:38:59;11.68;;;8.48;;
52033;SDS011;38045;52.988;6.536;2022-08-19T02:41:26;8.45;;;7.60;;
52033;SDS011;38045;52.988;6.536;2022-08-19T02:43:56;10.75;;;8.77;;
52033;SDS011;38045;52.988;6.536;2022-08-19T02:46:25;11.20;;;7.85;;
52033;SDS011;38045;52.988;6.536;2022-08-19T02:48:53;9.23;;;8.37;;
52033;SDS011;38045;52.988;6.536;2022-08-19T02:51:22;11.10;;;9.37;;
52033;SDS011;38045;52.988;6.536;2022-08-19T02:53:55;10.85;;;9.40;;
52033;SDS011;38045;52.988;6.536;2022-08-19T02:56:21;10.27;;;9.27;;
52033;SDS011;38045;52.988;6.536;2022-08-19T02:58:49;10.57;;;9.45;;
52033;SDS011;38045;52.988;6.536;2022-08-19T03:01:22;9.45;;;8.05;;
52033;SDS011;38045;52.988;6.536;2022-08-19T03:03:50;11.85;;;9.25;;
52033;SDS011;38045;52.988;6.536;2022-08-19T03:06:17;9.43;;;8.52;;
52033;SDS011;38045;52.988;6.536;2022-08-19T03:08:43;11.27;;;9.55;;
52033;SDS011;38045;52.988;6.536;2022-08-19T03:11:15;11.48;;;10.30;;
52033;SDS011;38045;52.988;6.536;2022-08-19T03:13:47;9.57;;;8.57;;
52033;SDS011;38045;52.988;6.536;2022-08-19T03:16:17;11.95;;;10.27;;
52033;SDS011;38045;52.988;6.536;2022-08-19T03:18:44;12.18;;;9.35;;
52033;SDS011;38045;52.988;6.536;2022-08-19T03:21:14;11.15;;;9.80;;
52033;SDS011;38045;52.988;6.536;2022-08-19T03:23:44;9.93;;;8.13;;
52033;SDS011;38045;52.988;6.536;2022-08-19T03:26:10;11.63;;;8.85;;
52033;SDS011;38045;52.988;6.536;2022-08-19T03:28:35;10.32;;;8.82;;
52033;SDS011;38045;52.988;6.536;2022-08-19T03:31:04;11.23;;;9.45;;
52033;SDS011;38045;52.988;6.536;2022-08-19T03:33:32;11.43;;;10.20;;
52033;SDS011;38045;52.988;6.536;2022-08-19T03:36:06;10.18;;;8.55;;
52033;SDS011;38045;52.988;6.536;2022-08-19T03:38:33;12.23;;;9.35;;
52033;SDS011;38045;52.988;6.536;2022-08-19T03:41:05;11.20;;;10.07;;
52033;SDS011;38045;52.988;6.536;2022-08-19T03:43:34;11.13;;;8.25;;
52033;SDS011;38045;52.988;6.536;2022-08-19T03:46:08;10.18;;;9.05;;
52033;SDS011;38045;52.988;6.536;2022-08-19T03:48:37;10.02;;;9.13;;
52033;SDS011;38045;52.988;6.536;2022-08-19T03:51:04;10.00;;;8.18;;
52033;SDS011;38045;52.988;6.536;2022-08-19T03:53:30;11.68;;;9.18;;
52033;SDS011;38045;52.988;6.536;2022-08-19T03:55:57;9.18;;;8.15;;
52033;SDS011;38045;52.988;6.536;2022-08-19T03:58:25;9.15;;;7.78;;
52033;SDS011;38045;52.988;6.536;2022-08-19T04:00:52;8.90;;;7.75;;
52033;SDS011;38045;52.988;6.536;2022-08-19T04:03:18;9.75;;;7.80;;
52033;SDS011;38045;52.988;6.536;2022-08-19T04:05:44;9.23;;;8.35;;
52033;SDS011;38045;52.988;6.536;2022-08-19T04:08:10;9.88;;;8.48;;
52033;SDS011;38045;52.988;6.536;2022-08-19T04:10:36;9.50;;;8.52;;
52033;SDS011;38045;52.988;6.536;2022-08-19T04:13:03;9.05;;;8.07;;
52033;SDS011;38045;52.988;6.536;2022-08-19T04:15:31;12.05;;;9.75;;
52033;SDS011;38045;52.988;6.536;2022-08-19T04:18:00;9.65;;;8.60;;
52033;SDS011;38045;52.988;6.536;2022-08-19T04:20:26;10.65;;;8.32;;
52033;SDS011;38045;52.988;6.536;2022-08-19T04:22:52;9.85;;;8.93;;
52033;SDS011;38045;52.988;6.536;2022-08-19T04:25:18;10.00;;;8.68;;
52033;SDS011;38045;52.988;6.536;2022-08-19T04:27:43;14.18;;;10.57;;
52033;SDS011;38045;52.988;6.536;2022-08-19T04:30:11;8.10;;;7.38;;
52033;SDS011;38045;52.988;6.536;2022-08-19T04:32:38;10.82;;;7.95;;
52033;SDS011;38045;52.988;6.536;2022-08-19T04:35:04;9.88;;;7.75;;
52033;SDS011;38045;52.988;6.536;2022-08-19T04:37:29;8.25;;;7.25;;
52033;SDS011;38045;52.988;6.536;2022-08-19T04:39:57;10.35;;;7.93;;
52033;SDS011;38045;52.988;6.536;2022-08-19T04:42:42;10.70;;;9.13;;
52033;SDS011;38045;52.988;6.536;2022-08-19T04:45:08;10.98;;;8.65;;
52033;SDS011;38045;52.988;6.536;2022-08-19T04:50:02;9.10;;;7.15;;
52033;SDS011;38045;52.988;6.536;2022-08-19T04:52:29;9.38;;;8.48;;
52033;SDS011;38045;52.988;6.536;2022-08-19T04:54:56;10.25;;;9.15;;
52033;SDS011;38045;52.988;6.536;2022-08-19T04:57:22;11.48;;;10.20;;
52033;SDS011;38045;52.988;6.536;2022-08-19T04:59:48;12.13;;;9.70;;
52033;SDS011;38045;52.988;6.536;2022-08-19T05:02:18;14.30;;;11.90;;
52033;SDS011;38045;52.988;6.536;2022-08-19T05:04:43;12.02;;;10.23;;
52033;SDS011;38045;52.988;6.536;2022-08-19T05:07:09;12.18;;;10.60;;
52033;SDS011;38045;52.988;6.536;2022-08-19T05:09:35;16.17;;;10.43;;
52033;SDS011;38045;52.988;6.536;2022-08-19T05:12:00;12.95;;;10.55;;
52033;SDS011;38045;52.988;6.536;2022-08-19T05:14:26;13.10;;;11.32;;
52033;SDS011;38045;52.988;6.536;2022-08-19T05:16:52;15.13;;;12.65;;
52033;SDS011;38045;52.988;6.536;2022-08-19T05:19:17;13.10;;;10.68;;
52033;SDS011;38045;52.988;6.536;2022-08-19T05:22:02;11.82;;;10.63;;
52033;SDS011;38045;52.988;6.536;2022-08-19T05:24:46;12.73;;;10.30;;
52033;SDS011;38045;52.988;6.536;2022-08-19T05:27:11;18.13;;;11.75;;
52033;SDS011;38045;52.988;6.536;2022-08-19T05:29:37;13.98;;;11.25;;
52033;SDS011;38045;52.988;6.536;2022-08-19T05:32:04;12.48;;;10.82;;
52033;SDS011;38045;52.988;6.536;2022-08-19T05:34:33;17.10;;;12.25;;
52033;SDS011;38045;52.988;6.536;2022-08-19T05:37:01;16.13;;;13.27;;
52033;SDS011;38045;52.988;6.536;2022-08-19T05:39:29;14.48;;;12.35;;
52033;SDS011;38045;52.988;6.536;2022-08-19T05:41:57;18.60;;;12.73;;
52033;SDS011;38045;52.988;6.536;2022-08-19T05:44:25;16.60;;;14.17;;
52033;SDS011;38045;52.988;6.536;2022-08-19T05:46:52;15.68;;;13.93;;
52033;SDS011;38045;52.988;6.536;2022-08-19T05:49:18;18.92;;;15.32;;
52033;SDS011;38045;52.988;6.536;2022-08-19T05:51:46;15.15;;;13.55;;
52033;SDS011;38045;52.988;6.536;2022-08-19T05:54:12;17.80;;;15.38;;
52033;SDS011;38045;52.988;6.536;2022-08-19T05:56:39;20.45;;;15.65;;
52033;SDS011;38045;52.988;6.536;2022-08-19T05:59:05;22.52;;;18.70;;
52033;SDS011;38045;52.988;6.536;2022-08-19T06:01:36;19.80;;;16.20;;
52033;SDS011;38045;52.988;6.536;2022-08-19T06:04:03;17.98;;;16.10;;
52033;SDS011;38045;52.988;6.536;2022-08-19T06:06:30;19.75;;;16.95;;
52033;SDS011;38045;52.988;6.536;2022-08-19T06:08:55;20.88;;;17.35;;
52033;SDS011;38045;52.988;6.536;2022-08-19T06:11:23;20.63;;;16.95;;
52033;SDS011;38045;52.988;6.536;2022-08-19T06:13:57;19.98;;;17.08;;
52033;SDS011;38045;52.988;6.536;2022-08-19T06:16:26;21.80;;;17.33;;
52033;SDS011;38045;52.988;6.536;2022-08-19T06:18:53;22.83;;;16.60;;
52033;SDS011;38045;52.988;6.536;2022-08-19T06:23:49;18.55;;;15.98;;
52033;SDS011;38045;52.988;6.536;2022-08-19T06:26:16;20.48;;;16.00;;
52033;SDS011;38045;52.988;6.536;2022-08-19T06:28:43;17.88;;;15.07;;
52033;SDS011;38045;52.988;6.536;2022-08-19T06:31:15;20.80;;;18.13;;
52033;SDS011;38045;52.988;6.536;2022-08-19T06:33:43;17.65;;;14.38;;
52033;SDS011;38045;52.988;6.536;2022-08-19T06:36:43;21.45;;;15.43;;
52033;SDS011;38045;52.988;6.536;2022-08-19T06:39:04;18.08;;;16.17;;
52033;SDS011;38045;52.988;6.536;2022-08-19T06:41:32;23.07;;;16.33;;
52033;SDS011;38045;52.988;6.536;2022-08-19T06:44:00;21.23;;;16.92;;
52033;SDS011;38045;52.988;6.536;2022-08-19T06:46:26;17.40;;;13.23;;
52033;SDS011;38045;52.988;6.536;2022-08-19T06:48:52;18.05;;;16.25;;
52033;SDS011;38045;52.988;6.536;2022-08-19T06:51:19;18.20;;;16.23;;
52033;SDS011;38045;52.988;6.536;2022-08-19T06:53:46;15.63;;;13.98;;
52033;SDS011;38045;52.988;6.536;2022-08-19T06:56:14;17.38;;;15.52;;
52033;SDS011;38045;52.988;6.536;2022-08-19T06:58:40;22.23;;;17.17;;
52033;SDS011;38045;52.988;6.536;2022-08-19T07:01:06;16.17;;;14.57;;
52033;SDS011;38045;52.988;6.536;2022-08-19T07:03:33;17.55;;;15.75;;
52033;SDS011;38045;52.988;6.536;2022-08-19T07:06:03;18.77;;;15.52;;
52033;SDS011;38045;52.988;6.536;2022-08-19T07:08:30;17.13;;;15.32;;
52033;SDS011;38045;52.988;6.536;2022-08-19T07:10:57;18.30;;;16.27;;
52033;SDS011;38045;52.988;6.536;2022-08-19T07:13:23;18.63;;;16.38;;
52033;SDS011;38045;52.988;6.536;2022-08-19T07:15:49;14.80;;;12.30;;
52033;SDS011;38045;52.988;6.536;2022-08-19T07:18:16;16.60;;;14.85;;
52033;SDS011;38045;52.988;6.536;2022-08-19T07:20:45;18.38;;;16.58;;
52033;SDS011;38045;52.988;6.536;2022-08-19T07:23:12;18.70;;;16.75;;
52033;SDS011;38045;52.988;6.536;2022-08-19T07:25:37;19.40;;;16.25;;
52033;SDS011;38045;52.988;6.536;2022-08-19T07:28:03;17.02;;;15.27;;
52033;SDS011;38045;52.988;6.536;2022-08-19T07:30:29;18.35;;;16.10;;
52033;SDS011;38045;52.988;6.536;2022-08-19T07:32:55;16.20;;;14.57;;
52033;SDS011;38045;52.988;6.536;2022-08-19T07:35:21;14.93;;;13.43;;
52033;SDS011;38045;52.988;6.536;2022-08-19T07:37:48;16.52;;;15.00;;
52033;SDS011;38045;52.988;6.536;2022-08-19T07:40:14;16.85;;;15.05;;
52033;SDS011;38045;52.988;6.536;2022-08-19T07:42:39;16.10;;;14.50;;
52033;SDS011;38045;52.988;6.536;2022-08-19T07:45:06;17.08;;;15.50;;
52033;SDS011;38045;52.988;6.536;2022-08-19T07:47:32;16.40;;;14.55;;
52033;SDS011;38045;52.988;6.536;2022-08-19T07:49:58;14.10;;;12.65;;
52033;SDS011;38045;52.988;6.536;2022-08-19T07:52:24;14.95;;;13.35;;
52033;SDS011;38045;52.988;6.536;2022-08-19T07:54:49;15.32;;;13.73;;
52033;SDS011;38045;52.988;6.536;2022-08-19T07:57:16;12.52;;;11.32;;
52033;SDS011;38045;52.988;6.536;2022-08-19T07:59:42;14.25;;;11.55;;
52033;SDS011;38045;52.988;6.536;2022-08-19T08:02:08;14.07;;;12.13;;
52033;SDS011;38045;52.988;6.536;2022-08-19T08:04:34;12.43;;;11.20;;
52033;SDS011;38045;52.988;6.536;2022-08-19T08:07:18;13.90;;;12.43;;
52033;SDS011;38045;52.988;6.536;2022-08-19T08:10:04;18.30;;;12.40;;
52033;SDS011;38045;52.988;6.536;2022-08-19T08:12:32;16.23;;;13.45;;
52033;SDS011;38045;52.988;6.536;2022-08-19T08:15:06;13.75;;;12.18;;
52033;SDS011;38045;52.988;6.536;2022-08-19T08:17:34;16.45;;;12.77;;
52033;SDS011;38045;52.988;6.536;2022-08-19T08:20:02;15.32;;;13.70;;
52033;SDS011;38045;52.988;6.536;2022-08-19T08:22:31;17.63;;;13.40;;
52033;SDS011;38045;52.988;6.536;2022-08-19T08:25:17;14.30;;;13.00;;
52033;SDS011;38045;52.988;6.536;2022-08-19T08:27:45;15.38;;;13.80;;
52033;SDS011;38045;52.988;6.536;2022-08-19T08:30:13;15.73;;;13.88;;
52033;SDS011;38045;52.988;6.536;2022-08-19T08:32:44;16.17;;;14.45;;
52033;SDS011;38045;52.988;6.536;2022-08-19T08:35:11;14.60;;;13.07;;
52033;SDS011;38045;52.988;6.536;2022-08-19T08:37:39;14.15;;;12.65;;
52033;SDS011;38045;52.988;6.536;2022-08-19T08:40:16;12.63;;;11.35;;
52033;SDS011;38045;52.988;6.536;2022-08-19T08:42:45;13.25;;;12.00;;
52033;SDS011;38045;52.988;6.536;2022-08-19T08:45:17;12.18;;;10.90;;
52033;SDS011;38045;52.988;6.536;2022-08-19T08:47:44;13.70;;;11.70;;
52033;SDS011;38045;52.988;6.536;2022-08-19T08:50:16;15.02;;;13.63;;
52033;SDS011;38045;52.988;6.536;2022-08-19T08:52:48;11.30;;;10.20;;
52033;SDS011;38045;52.988;6.536;2022-08-19T08:55:20;11.93;;;10.73;;
52033;SDS011;38045;52.988;6.536;2022-08-19T09:00:56;12.27;;;10.05;;
52033;SDS011;38045;52.988;6.536;2022-08-19T09:03:05;10.50;;;9.50;;
52033;SDS011;38045;52.988;6.536;2022-08-19T09:05:48;10.30;;;9.32;;
52033;SDS011;38045;52.988;6.536;2022-08-19T09:08:25;10.65;;;9.63;;
52033;SDS011;38045;52.988;6.536;2022-08-19T09:11:06;10.05;;;9.15;;
52033;SDS011;38045;52.988;6.536;2022-08-19T09:16:33;12.18;;;11.07;;
52033;SDS011;38045;52.988;6.536;2022-08-19T09:19:03;9.63;;;8.82;;
52033;SDS011;38045;52.988;6.536;2022-08-19T09:21:30;10.43;;;9.48;;
52033;SDS011;38045;52.988;6.536;2022-08-19T09:23:56;8.95;;;8.05;;
52033;SDS011;38045;52.988;6.536;2022-08-19T09:26:23;9.93;;;9.13;;
52033;SDS011;38045;52.988;6.536;2022-08-19T09:28:50;10.00;;;9.00;;
52033;SDS011;38045;52.988;6.536;2022-08-19T09:31:25;10.43;;;9.45;;
52033;SDS011;38045;52.988;6.536;2022-08-19T09:33:52;10.80;;;8.25;;
52033;SDS011;38045;52.988;6.536;2022-08-19T09:36:22;8.15;;;7.47;;
52033;SDS011;38045;52.988;6.536;2022-08-19T09:38:50;10.07;;;9.18;;
52033;SDS011;38045;52.988;6.536;2022-08-19T09:41:17;10.80;;;9.95;;
52033;SDS011;38045;52.988;6.536;2022-08-19T09:43:46;11.60;;;10.07;;
52033;SDS011;38045;52.988;6.536;2022-08-19T09:46:13;9.70;;;8.80;;
52033;SDS011;38045;52.988;6.536;2022-08-19T09:48:39;11.05;;;9.93;;
52033;SDS011;38045;52.988;6.536;2022-08-19T09:51:07;15.38;;;9.68;;
52033;SDS011;38045;52.988;6.536;2022-08-19T09:56:01;12.45;;;8.88;;
52033;SDS011;38045;52.988;6.536;2022-08-19T09:58:27;8.48;;;7.75;;
52033;SDS011;38045;52.988;6.536;2022-08-19T10:00:55;11.50;;;10.45;;
52033;SDS011;38045;52.988;6.536;2022-08-19T10:03:21;9.07;;;8.15;;
52033;SDS011;38045;52.988;6.536;2022-08-19T10:05:47;11.38;;;9.18;;
52033;SDS011;38045;52.988;6.536;2022-08-19T10:08:16;10.38;;;9.48;;
52033;SDS011;38045;52.988;6.536;2022-08-19T10:10:47;13.15;;;9.50;;
52033;SDS011;38045;52.988;6.536;2022-08-19T10:13:14;8.77;;;8.00;;
52033;SDS011;38045;52.988;6.536;2022-08-19T10:15:42;8.48;;;7.68;;
52033;SDS011;38045;52.988;6.536;2022-08-19T10:18:08;11.45;;;10.25;;
52033;SDS011;38045;52.988;6.536;2022-08-19T10:20:34;9.57;;;8.68;;
52033;SDS011;38045;52.988;6.536;2022-08-19T10:23:03;10.88;;;9.65;;
52033;SDS011;38045;52.988;6.536;2022-08-19T10:25:28;8.10;;;7.30;;
52033;SDS011;38045;52.988;6.536;2022-08-19T10:27:54;10.35;;;9.45;;
52033;SDS011;38045;52.988;6.536;2022-08-19T10:30:20;13.55;;;12.00;;
52033;SDS011;38045;52.988;6.536;2022-08-19T10:32:46;9.95;;;8.98;;
52033;SDS011;38045;52.988;6.536;2022-08-19T10:35:12;8.65;;;7.93;;
52033;SDS011;38045;52.988;6.536;2022-08-19T10:37:38;8.93;;;7.95;;
52033;SDS011;38045;52.988;6.536;2022-08-19T10:40:05;9.55;;;8.68;;
52033;SDS011;38045;52.988;6.536;2022-08-19T10:42:32;8.03;;;7.33;;
52033;SDS011;38045;52.988;6.536;2022-08-19T10:44:59;10.90;;;9.48;;
52033;SDS011;38045;52.988;6.536;2022-08-19T10:47:24;10.45;;;8.10;;
52033;SDS011;38045;52.988;6.536;2022-08-19T10:49:50;8.95;;;8.05;;
52033;SDS011;38045;52.988;6.536;2022-08-19T10:52:39;7.55;;;6.03;;
52033;SDS011;38045;52.988;6.536;2022-08-19T10:55:09;7.93;;;7.28;;
52033;SDS011;38045;52.988;6.536;2022-08-19T10:57:53;10.95;;;8.57;;
52033;SDS011;38045;52.988;6.536;2022-08-19T11:00:19;8.50;;;7.78;;
52033;SDS011;38045;52.988;6.536;2022-08-19T11:02:48;8.45;;;7.63;;
52033;SDS011;38045;52.988;6.536;2022-08-19T11:05:14;11.40;;;10.15;;
52033;SDS011;38045;52.988;6.536;2022-08-19T11:07:40;9.43;;;8.65;;
52033;SDS011;38045;52.988;6.536;2022-08-19T11:10:07;11.63;;;10.43;;
52033;SDS011;38045;52.988;6.536;2022-08-19T11:12:36;10.95;;;9.95;;
52033;SDS011;38045;52.988;6.536;2022-08-19T11:15:04;11.70;;;10.52;;
52033;SDS011;38045;52.988;6.536;2022-08-19T11:17:37;11.13;;;10.00;;
52033;SDS011;38045;52.988;6.536;2022-08-19T11:20:05;11.60;;;10.50;;
52033;SDS011;38045;52.988;6.536;2022-08-19T11:22:32;12.50;;;11.30;;
52033;SDS011;38045;52.988;6.536;2022-08-19T11:24:57;10.88;;;9.88;;
52033;SDS011;38045;52.988;6.536;2022-08-19T11:27:23;11.40;;;10.40;;
52033;SDS011;38045;52.988;6.536;2022-08-19T11:29:48;13.13;;;11.85;;
52033;SDS011;38045;52.988;6.536;2022-08-19T11:32:14;12.50;;;10.77;;
52033;SDS011;38045;52.988;6.536;2022-08-19T11:34:40;12.32;;;9.43;;
52033;SDS011;38045;52.988;6.536;2022-08-19T11:37:06;13.23;;;11.75;;
52033;SDS011;38045;52.988;6.536;2022-08-19T11:39:33;16.73;;;14.57;;
52033;SDS011;38045;52.988;6.536;2022-08-19T11:42:01;12.10;;;10.80;;
52033;SDS011;38045;52.988;6.536;2022-08-19T11:44:48;11.05;;;9.98;;
52033;SDS011;38045;52.988;6.536;2022-08-19T11:47:14;15.27;;;13.82;;
52033;SDS011;38045;52.988;6.536;2022-08-19T11:49:40;12.77;;;11.57;;
52033;SDS011;38045;52.988;6.536;2022-08-19T11:52:07;13.35;;;12.00;;
52033;SDS011;38045;52.988;6.536;2022-08-19T11:54:33;13.60;;;12.23;;
52033;SDS011;38045;52.988;6.536;2022-08-19T11:56:58;11.90;;;10.52;;
52033;SDS011;38045;52.988;6.536;2022-08-19T11:59:24;10.77;;;9.68;;
52033;SDS011;38045;52.988;6.536;2022-08-19T12:01:51;13.82;;;12.60;;
52033;SDS011;38045;52.988;6.536;2022-08-19T12:04:17;12.55;;;11.43;;
52033;SDS011;38045;52.988;6.536;2022-08-19T12:06:42;8.70;;;7.90;;
52033;SDS011;38045;52.988;6.536;2022-08-19T12:09:09;9.52;;;8.65;;
52033;SDS011;38045;52.988;6.536;2022-08-19T12:11:35;7.63;;;6.88;;
52033;SDS011;38045;52.988;6.536;2022-08-19T12:14:02;7.35;;;6.60;;
52033;SDS011;38045;52.988;6.536;2022-08-19T12:16:28;9.05;;;8.05;;
52033;SDS011;38045;52.988;6.536;2022-08-19T12:18:55;7.47;;;6.70;;
52033;SDS011;38045;52.988;6.536;2022-08-19T12:21:24;6.28;;;5.78;;
52033;SDS011;38045;52.988;6.536;2022-08-19T12:23:55;6.20;;;5.10;;
52033;SDS011;38045;52.988;6.536;2022-08-19T12:26:23;6.18;;;5.57;;
52033;SDS011;38045;52.988;6.536;2022-08-19T12:28:49;7.75;;;6.18;;
52033;SDS011;38045;52.988;6.536;2022-08-19T12:31:15;6.72;;;5.32;;
52033;SDS011;38045;52.988;6.536;2022-08-19T12:33:41;11.25;;;4.25;;
52033;SDS011;38045;52.988;6.536;2022-08-19T12:36:08;15.25;;;4.00;;
52033;SDS011;38045;52.988;6.536;2022-08-19T12:38:36;6.28;;;5.68;;
52033;SDS011;38045;52.988;6.536;2022-08-19T12:41:02;6.30;;;5.68;;
52033;SDS011;38045;52.988;6.536;2022-08-19T12:45:56;6.45;;;5.85;;
52033;SDS011;38045;52.988;6.536;2022-08-19T12:48:22;6.53;;;5.85;;
52033;SDS011;38045;52.988;6.536;2022-08-19T12:50:48;7.78;;;5.22;;
52033;SDS011;38045;52.988;6.536;2022-08-19T12:53:14;7.57;;;6.88;;
52033;SDS011;38045;52.988;6.536;2022-08-19T12:55:40;9.18;;;6.90;;
52033;SDS011;38045;52.988;6.536;2022-08-19T12:58:07;8.07;;;7.28;;
52033;SDS011;38045;52.988;6.536;2022-08-19T13:00:33;6.95;;;6.35;;
52033;SDS011;38045;52.988;6.536;2022-08-19T13:02:59;10.13;;;8.07;;
52033;SDS011;38045;52.988;6.536;2022-08-19T13:05:26;7.10;;;5.57;;
52033;SDS011;38045;52.988;6.536;2022-08-19T13:07:54;5.57;;;5.03;;
52033;SDS011;38045;52.988;6.536;2022-08-19T13:10:21;8.13;;;6.88;;
52033;SDS011;38045;52.988;6.536;2022-08-19T13:12:49;6.68;;;6.00;;
52033;SDS011;38045;52.988;6.536;2022-08-19T13:15:16;7.82;;;6.63;;
52033;SDS011;38045;52.988;6.536;2022-08-19T13:17:45;6.57;;;5.93;;
52033;SDS011;38045;52.988;6.536;2022-08-19T13:20:14;8.52;;;7.78;;
52033;SDS011;38045;52.988;6.536;2022-08-19T13:22:40;12.27;;;9.63;;
52033;SDS011;38045;52.988;6.536;2022-08-19T13:25:07;9.73;;;8.73;;
52033;SDS011;38045;52.988;6.536;2022-08-19T13:27:34;9.75;;;7.13;;
52033;SDS011;38045;52.988;6.536;2022-08-19T13:30:00;12.45;;;10.80;;
52033;SDS011;38045;52.988;6.536;2022-08-19T13:32:46;13.82;;;11.10;;
52033;SDS011;38045;52.988;6.536;2022-08-19T13:35:30;18.83;;;14.48;;
52033;SDS011;38045;52.988;6.536;2022-08-19T13:37:56;23.88;;;17.27;;
52033;SDS011;38045;52.988;6.536;2022-08-19T13:40:22;19.73;;;17.63;;
52033;SDS011;38045;52.988;6.536;2022-08-19T13:42:51;22.20;;;18.90;;
52033;SDS011;38045;52.988;6.536;2022-08-19T13:45:19;19.55;;;17.55;;
52033;SDS011;38045;52.988;6.536;2022-08-19T13:47:50;17.73;;;16.13;;
52033;SDS011;38045;52.988;6.536;2022-08-19T13:50:17;20.02;;;15.32;;
52033;SDS011;38045;52.988;6.536;2022-08-19T13:52:45;19.80;;;17.27;;
52033;SDS011;38045;52.988;6.536;2022-08-19T13:55:12;21.38;;;18.67;;
52033;SDS011;38045;52.988;6.536;2022-08-19T13:57:38;18.80;;;16.83;;
52033;SDS011;38045;52.988;6.536;2022-08-19T14:00:06;22.00;;;18.80;;
52033;SDS011;38045;52.988;6.536;2022-08-19T14:02:35;20.80;;;18.77;;
52033;SDS011;38045;52.988;6.536;2022-08-19T14:05:02;18.75;;;16.92;;
52033;SDS011;38045;52.988;6.536;2022-08-19T14:07:28;30.73;;;18.55;;
52033;SDS011;38045;52.988;6.536;2022-08-19T14:09:54;21.45;;;17.50;;
52033;SDS011;38045;52.988;6.536;2022-08-19T14:12:20;17.63;;;15.23;;
52033;SDS011;38045;52.988;6.536;2022-08-19T14:14:46;17.25;;;14.82;;
52033;SDS011;38045;52.988;6.536;2022-08-19T14:17:12;19.02;;;17.02;;
52033;SDS011;38045;52.988;6.536;2022-08-19T14:19:37;16.73;;;14.68;;
52033;SDS011;38045;52.988;6.536;2022-08-19T14:22:03;22.52;;;16.60;;
52033;SDS011;38045;52.988;6.536;2022-08-19T14:24:30;19.92;;;15.25;;
52033;SDS011;38045;52.988;6.536;2022-08-19T14:26:57;15.80;;;13.80;;
52033;SDS011;38045;52.988;6.536;2022-08-19T14:29:23;24.75;;;15.50;;
52033;SDS011;38045;52.988;6.536;2022-08-19T14:31:49;16.45;;;14.50;;
52033;SDS011;38045;52.988;6.536;2022-08-19T14:34:15;20.30;;;18.10;;
52033;SDS011;38045;52.988;6.536;2022-08-19T14:36:40;17.88;;;15.50;;
52033;SDS011;38045;52.988;6.536;2022-08-19T14:39:06;22.20;;;17.38;;
52033;SDS011;38045;52.988;6.536;2022-08-19T14:41:32;19.45;;;15.75;;
52033;SDS011;38045;52.988;6.536;2022-08-19T14:43:58;19.10;;;17.10;;
52033;SDS011;38045;52.988;6.536;2022-08-19T14:46:25;26.15;;;16.65;;
52033;SDS011;38045;52.988;6.536;2022-08-19T14:48:53;16.15;;;14.43;;
52033;SDS011;38045;52.988;6.536;2022-08-19T14:51:19;14.32;;;11.68;;
52033;SDS011;38045;52.988;6.536;2022-08-19T14:53:47;11.23;;;9.07;;